sensor_id;sensor_type;location;lat;lon;timestamp;temperature;humidity
64685;DHT22;51109;47.414;18.954;2023-11-21T00:00:31;5.90;99.90
64685;DHT22;51109;47.414;18.954;2023-11-21T00:02:57;5.90;99.90
64685;DHT22;51109;47.414;18.954;2023-11-21T00:05:23;5.90;99.90
64685;DHT22;51109;47.414;18.954;2023-11-21T00:07:49;5.90;99.90
64685;DHT22;51109;47.414;18.954;2023-11-21T00:10:15;5.90;99.90
64685;DHT22;51109;47.414;18.954;2023-11-21T00:12:41;5.80;99.90
64685;DHT22;51109;47.414;18.954;2023-11-21T00:15:08;5.70;99.90
64685;DHT22;51109;47.414;18.954;2023-11-21T00:17:38;5.70;99.90
64685;DHT22;51109;47.414;18.954;2023-11-21T00:20:05;5.70;99.90
64685;DHT22;51109;47.414;18.954;2023-11-21T00:22:35;5.70;99.90
64685;DHT22;51109;47.414;18.954;2023-11-21T00:25:02;5.60;99.90
64685;DHT22;51109;47.414;18.954;2023-11-21T00:27:30;5.40;99.90
64685;DHT22;51109;47.414;18.954;2023-11-21T00:29:56;5.30;99.90
64685;DHT22;51109;47.414;18.954;2023-11-21T00:32:21;5.20;99.90
64685;DHT22;51109;47.414;18.954;2023-11-21T00:34:47;5.20;99.90
64685;DHT22;51109;47.414;18.954;2023-11-21T00:37:14;5.20;99.90
64685;DHT22;51109;47.414;18.954;2023-11-21T00:39:40;5.10;99.90
64685;DHT22;51109;47.414;18.954;2023-11-21T00:42:06;5.10;99.90
64685;DHT22;51109;47.414;18.954;2023-11-21T00:44:32;5.10;99.90
64685;DHT22;51109;47.414;18.954;2023-11-21T00:46:59;5.20;99.90
64685;DHT22;51109;47.414;18.954;2023-11-21T00:49:25;5.30;99.90
64685;DHT22;51109;47.414;18.954;2023-11-21T00:51:51;5.30;99.90
64685;DHT22;51109;47.414;18.954;2023-11-21T00:54:17;5.40;99.90
64685;DHT22;51109;47.414;18.954;2023-11-21T00:56:43;5.40;99.90
64685;DHT22;51109;47.414;18.954;2023-11-21T00:59:09;5.40;99.90
64685;DHT22;51109;47.414;18.954;2023-11-21T01:01:36;5.50;99.90
64685;DHT22;51109;47.414;18.954;2023-11-21T01:04:03;5.50;99.90
64685;DHT22;51109;47.414;18.954;2023-11-21T01:06:29;5.60;99.90
64685;DHT22;51109;47.414;18.954;2023-11-21T01:08:55;5.50;99.90
64685;DHT22;51109;47.414;18.954;2023-11-21T01:11:21;5.60;99.90
64685;DHT22;51109;47.414;18.954;2023-11-21T01:13:47;5.70;99.90
64685;DHT22;51109;47.414;18.954;2023-11-21T01:16:13;5.80;99.90
64685;DHT22;51109;47.414;18.954;2023-11-21T01:18:39;5.80;99.90
64685;DHT22;51109;47.414;18.954;2023-11-21T01:21:05;5.70;99.90
64685;DHT22;51109;47.414;18.954;2023-11-21T01:23:31;5.70;99.90
64685;DHT22;51109;47.414;18.954;2023-11-21T01:25:57;5.70;99.90
64685;DHT22;51109;47.414;18.954;2023-11-21T01:30:49;5.70;99.90
64685;DHT22;51109;47.414;18.954;2023-11-21T01:33:15;5.60;99.90
64685;DHT22;51109;47.414;18.954;2023-11-21T01:35:42;5.70;99.90
64685;DHT22;51109;47.414;18.954;2023-11-21T01:38:08;5.70;99.90
64685;DHT22;51109;47.414;18.954;2023-11-21T01:40:34;5.70;99.90
64685;DHT22;51109;47.414;18.954;2023-11-21T01:43:00;5.70;99.90
64685;DHT22;51109;47.414;18.954;2023-11-21T01:45:29;5.70;99.90
64685;DHT22;51109;47.414;18.954;2023-11-21T01:47:57;5.60;99.90
64685;DHT22;51109;47.414;18.954;2023-11-21T01:50:24;5.70;99.90
64685;DHT22;51109;47.414;18.954;2023-11-21T01:52:50;5.80;99.90
64685;DHT22;51109;47.414;18.954;2023-11-21T01:55:18;5.70;99.90
64685;DHT22;51109;47.414;18.954;2023-11-21T01:57:45;5.70;99.90
64685;DHT22;51109;47.414;18.954;2023-11-21T02:05:42;5.80;99.90
64685;DHT22;51109;47.414;18.954;2023-11-21T02:08:08;5.90;99.90
64685;DHT22;51109;47.414;18.954;2023-11-21T02:10:35;5.90;99.90
64685;DHT22;51109;47.414;18.954;2023-11-21T02:13:03;5.90;99.90
64685;DHT22;51109;47.414;18.954;2023-11-21T02:15:29;6.00;99.90
64685;DHT22;51109;47.414;18.954;2023-11-21T02:17:55;6.10;99.90
64685;DHT22;51109;47.414;18.954;2023-11-21T02:20:24;6.30;99.90
64685;DHT22;51109;47.414;18.954;2023-11-21T02:22:52;6.40;99.90
64685;DHT22;51109;47.414;18.954;2023-11-21T02:25:24;6.40;99.90
64685;DHT22;51109;47.414;18.954;2023-11-21T02:27:50;6.40;99.90
64685;DHT22;51109;47.414;18.954;2023-11-21T02:30:17;6.40;99.90
64685;DHT22;51109;47.414;18.954;2023-11-21T02:32:43;6.30;99.90
64685;DHT22;51109;47.414;18.954;2023-11-21T02:35:09;6.30;99.90
64685;DHT22;51109;47.414;18.954;2023-11-21T02:37:35;6.30;99.90
64685;DHT22;51109;47.414;18.954;2023-11-21T02:40:04;6.30;99.90
64685;DHT22;51109;47.414;18.954;2023-11-21T02:42:31;6.30;99.90
64685;DHT22;51109;47.414;18.954;2023-11-21T02:44:57;6.30;99.90
64685;DHT22;51109;47.414;18.954;2023-11-21T02:47:23;6.50;99.90
64685;DHT22;51109;47.414;18.954;2023-11-21T02:49:50;6.50;99.90
64685;DHT22;51109;47.414;18.954;2023-11-21T02:52:18;6.50;99.90
64685;DHT22;51109;47.414;18.954;2023-11-21T02:54:45;6.50;99.90
64685;DHT22;51109;47.414;18.954;2023-11-21T02:57:11;6.70;99.90
64685;DHT22;51109;47.414;18.954;2023-11-21T02:59:36;6.80;99.90
64685;DHT22;51109;47.414;18.954;2023-11-21T03:02:02;7.00;99.90
64685;DHT22;51109;47.414;18.954;2023-11-21T03:04:28;7.10;99.90
64685;DHT22;51109;47.414;18.954;2023-11-21T03:06:54;7.10;99.90
64685;DHT22;51109;47.414;18.954;2023-11-21T03:09:20;7.10;99.90
64685;DHT22;51109;47.414;18.954;2023-11-21T03:11:46;6.90;99.90
64685;DHT22;51109;47.414;18.954;2023-11-21T03:14:12;6.80;99.90
64685;DHT22;51109;47.414;18.954;2023-11-21T03:16:38;6.70;99.90
64685;DHT22;51109;47.414;18.954;2023-11-21T03:19:04;6.70;99.90
64685;DHT22;51109;47.414;18.954;2023-11-21T03:21:30;6.70;99.90
64685;DHT22;51109;47.414;18.954;2023-11-21T03:23:56;6.70;99.90
64685;DHT22;51109;47.414;18.954;2023-11-21T03:26:22;6.70;99.90
64685;DHT22;51109;47.414;18.954;2023-11-21T03:28:48;6.70;99.90
64685;DHT22;51109;47.414;18.954;2023-11-21T03:31:15;6.80;99.90
64685;DHT22;51109;47.414;18.954;2023-11-21T03:33:42;6.80;99.90
64685;DHT22;51109;47.414;18.954;2023-11-21T03:36:08;6.80;99.90
64685;DHT22;51109;47.414;18.954;2023-11-21T03:38:34;6.90;99.90
64685;DHT22;51109;47.414;18.954;2023-11-21T03:41:00;6.90;99.90
64685;DHT22;51109;47.414;18.954;2023-11-21T03:43:26;6.90;99.90
64685;DHT22;51109;47.414;18.954;2023-11-21T03:45:52;6.90;99.90
64685;DHT22;51109;47.414;18.954;2023-11-21T03:48:18;6.90;99.90
64685;DHT22;51109;47.414;18.954;2023-11-21T03:50:44;6.80;99.90
64685;DHT22;51109;47.414;18.954;2023-11-21T03:53:09;6.60;99.90
64685;DHT22;51109;47.414;18.954;2023-11-21T03:55:35;6.50;99.90
64685;DHT22;51109;47.414;18.954;2023-11-21T03:58:01;6.40;99.90
64685;DHT22;51109;47.414;18.954;2023-11-21T04:00:28;6.30;99.90
64685;DHT22;51109;47.414;18.954;2023-11-21T04:02:53;6.30;99.90
64685;DHT22;51109;47.414;18.954;2023-11-21T04:05:20;6.20;99.90
64685;DHT22;51109;47.414;18.954;2023-11-21T04:07:49;6.20;99.90
64685;DHT22;51109;47.414;18.954;2023-11-21T04:10:16;6.20;99.90
64685;DHT22;51109;47.414;18.954;2023-11-21T04:12:42;6.10;99.90
64685;DHT22;51109;47.414;18.954;2023-11-21T04:15:08;6.10;99.90
64685;DHT22;51109;47.414;18.954;2023-11-21T04:17:35;6.00;99.90
64685;DHT22;51109;47.414;18.954;2023-11-21T04:20:04;6.00;99.90
64685;DHT22;51109;47.414;18.954;2023-11-21T04:22:35;6.00;99.90
64685;DHT22;51109;47.414;18.954;2023-11-21T04:25:01;5.90;99.90
64685;DHT22;51109;47.414;18.954;2023-11-21T04:27:27;6.00;99.90
64685;DHT22;51109;47.414;18.954;2023-11-21T04:29:53;6.00;99.90
64685;DHT22;51109;47.414;18.954;2023-11-21T04:32:19;6.00;99.90
64685;DHT22;51109;47.414;18.954;2023-11-21T04:34:45;5.90;99.90
64685;DHT22;51109;47.414;18.954;2023-11-21T04:37:11;5.90;99.90
64685;DHT22;51109;47.414;18.954;2023-11-21T04:39:37;5.90;99.90
64685;DHT22;51109;47.414;18.954;2023-11-21T04:42:03;6.00;99.90
64685;DHT22;51109;47.414;18.954;2023-11-21T04:44:30;6.00;99.90
64685;DHT22;51109;47.414;18.954;2023-11-21T04:46:55;6.00;99.90
64685;DHT22;51109;47.414;18.954;2023-11-21T04:49:21;6.20;99.90
64685;DHT22;51109;47.414;18.954;2023-11-21T04:51:47;6.40;99.90
64685;DHT22;51109;47.414;18.954;2023-11-21T04:54:13;6.40;99.90
64685;DHT22;51109;47.414;18.954;2023-11-21T04:56:39;6.40;99.90
64685;DHT22;51109;47.414;18.954;2023-11-21T04:59:05;6.40;99.90
64685;DHT22;51109;47.414;18.954;2023-11-21T05:01:30;6.40;99.90
64685;DHT22;51109;47.414;18.954;2023-11-21T05:03:56;6.30;99.90
64685;DHT22;51109;47.414;18.954;2023-11-21T05:06:22;6.40;99.90
64685;DHT22;51109;47.414;18.954;2023-11-21T05:08:49;6.50;99.90
64685;DHT22;51109;47.414;18.954;2023-11-21T05:11:25;6.50;99.90
64685;DHT22;51109;47.414;18.954;2023-11-21T05:13:51;6.50;99.90
64685;DHT22;51109;47.414;18.954;2023-11-21T05:16:17;6.60;99.90
64685;DHT22;51109;47.414;18.954;2023-11-21T05:18:43;6.60;99.90
64685;DHT22;51109;47.414;18.954;2023-11-21T05:21:10;6.70;99.90
64685;DHT22;51109;47.414;18.954;2023-11-21T05:23:36;6.60;99.90
64685;DHT22;51109;47.414;18.954;2023-11-21T05:26:03;6.70;99.90
64685;DHT22;51109;47.414;18.954;2023-11-21T05:28:29;6.70;99.90
64685;DHT22;51109;47.414;18.954;2023-11-21T05:30:55;6.70;99.90
64685;DHT22;51109;47.414;18.954;2023-11-21T05:33:21;6.80;99.90
64685;DHT22;51109;47.414;18.954;2023-11-21T05:35:47;6.80;99.90
64685;DHT22;51109;47.414;18.954;2023-11-21T05:38:14;6.80;99.90
64685;DHT22;51109;47.414;18.954;2023-11-21T05:40:40;6.80;99.90
64685;DHT22;51109;47.414;18.954;2023-11-21T05:43:06;6.70;99.90
64685;DHT22;51109;47.414;18.954;2023-11-21T05:45:32;6.70;99.90
64685;DHT22;51109;47.414;18.954;2023-11-21T05:47:58;6.70;99.90
64685;DHT22;51109;47.414;18.954;2023-11-21T05:50:24;6.70;99.90
64685;DHT22;51109;47.414;18.954;2023-11-21T05:52:50;6.80;99.90
64685;DHT22;51109;47.414;18.954;2023-11-21T05:55:19;6.80;99.90
64685;DHT22;51109;47.414;18.954;2023-11-21T05:57:46;6.80;99.90
64685;DHT22;51109;47.414;18.954;2023-11-21T06:00:14;6.80;99.90
64685;DHT22;51109;47.414;18.954;2023-11-21T06:02:40;6.70;99.90
64685;DHT22;51109;47.414;18.954;2023-11-21T06:05:07;6.70;99.90
64685;DHT22;51109;47.414;18.954;2023-11-21T06:07:34;6.70;99.90
64685;DHT22;51109;47.414;18.954;2023-11-21T06:10:04;6.70;99.90
64685;DHT22;51109;47.414;18.954;2023-11-21T06:12:35;6.80;99.90
64685;DHT22;51109;47.414;18.954;2023-11-21T06:15:03;6.70;99.90
64685;DHT22;51109;47.414;18.954;2023-11-21T06:17:34;6.60;99.90
64685;DHT22;51109;47.414;18.954;2023-11-21T06:20:06;6.60;99.90
64685;DHT22;51109;47.414;18.954;2023-11-21T06:22:39;6.60;99.90
64685;DHT22;51109;47.414;18.954;2023-11-21T06:25:05;6.60;99.90
64685;DHT22;51109;47.414;18.954;2023-11-21T06:27:32;6.50;99.90
64685;DHT22;51109;47.414;18.954;2023-11-21T06:30:00;6.50;99.90
64685;DHT22;51109;47.414;18.954;2023-11-21T06:32:25;6.40;99.90
64685;DHT22;51109;47.414;18.954;2023-11-21T06:34:51;6.30;99.90
64685;DHT22;51109;47.414;18.954;2023-11-21T06:37:20;6.30;99.90
64685;DHT22;51109;47.414;18.954;2023-11-21T06:39:49;6.40;99.90
64685;DHT22;51109;47.414;18.954;2023-11-21T06:42:18;6.40;99.90
64685;DHT22;51109;47.414;18.954;2023-11-21T06:44:47;6.50;99.90
64685;DHT22;51109;47.414;18.954;2023-11-21T06:47:14;6.60;99.90
64685;DHT22;51109;47.414;18.954;2023-11-21T06:49:42;6.70;99.90
64685;DHT22;51109;47.414;18.954;2023-11-21T06:52:08;6.80;99.90
64685;DHT22;51109;47.414;18.954;2023-11-21T06:54:34;6.90;99.90
64685;DHT22;51109;47.414;18.954;2023-11-21T06:57:01;6.90;99.90
64685;DHT22;51109;47.414;18.954;2023-11-21T06:59:31;7.00;99.90
64685;DHT22;51109;47.414;18.954;2023-11-21T07:01:57;7.10;99.90
64685;DHT22;51109;47.414;18.954;2023-11-21T07:04:23;7.10;99.90
64685;DHT22;51109;47.414;18.954;2023-11-21T07:06:52;7.20;99.90
64685;DHT22;51109;47.414;18.954;2023-11-21T07:09:18;7.30;99.90
64685;DHT22;51109;47.414;18.954;2023-11-21T07:11:50;7.40;99.90
64685;DHT22;51109;47.414;18.954;2023-11-21T07:14:17;7.40;99.90
64685;DHT22;51109;47.414;18.954;2023-11-21T07:16:45;7.50;99.90
64685;DHT22;51109;47.414;18.954;2023-11-21T07:19:11;7.40;99.90
64685;DHT22;51109;47.414;18.954;2023-11-21T07:21:38;7.40;99.90
64685;DHT22;51109;47.414;18.954;2023-11-21T07:24:05;7.50;99.90
64685;DHT22;51109;47.414;18.954;2023-11-21T07:26:32;7.60;99.90
64685;DHT22;51109;47.414;18.954;2023-11-21T07:29:03;7.70;99.90
64685;DHT22;51109;47.414;18.954;2023-11-21T07:31:29;7.80;99.90
64685;DHT22;51109;47.414;18.954;2023-11-21T07:33:55;7.80;99.90
64685;DHT22;51109;47.414;18.954;2023-11-21T07:36:24;7.90;99.90
64685;DHT22;51109;47.414;18.954;2023-11-21T07:38:51;7.90;99.90
64685;DHT22;51109;47.414;18.954;2023-11-21T07:41:17;8.00;99.90
64685;DHT22;51109;47.414;18.954;2023-11-21T07:43:44;8.10;99.90
64685;DHT22;51109;47.414;18.954;2023-11-21T07:46:11;8.10;99.90
64685;DHT22;51109;47.414;18.954;2023-11-21T07:48:39;8.10;99.90
64685;DHT22;51109;47.414;18.954;2023-11-21T07:51:05;8.10;99.90
64685;DHT22;51109;47.414;18.954;2023-11-21T07:53:32;8.10;99.90
64685;DHT22;51109;47.414;18.954;2023-11-21T07:56:08;8.10;99.90
64685;DHT22;51109;47.414;18.954;2023-11-21T07:58:37;8.10;99.90
64685;DHT22;51109;47.414;18.954;2023-11-21T08:01:04;8.10;99.90
64685;DHT22;51109;47.414;18.954;2023-11-21T08:03:30;8.20;99.90
64685;DHT22;51109;47.414;18.954;2023-11-21T08:05:59;8.20;99.90
64685;DHT22;51109;47.414;18.954;2023-11-21T08:08:26;8.20;99.90
64685;DHT22;51109;47.414;18.954;2023-11-21T08:10:52;8.10;99.90
64685;DHT22;51109;47.414;18.954;2023-11-21T08:13:25;8.10;99.90
64685;DHT22;51109;47.414;18.954;2023-11-21T08:15:56;8.10;99.90
64685;DHT22;51109;47.414;18.954;2023-11-21T08:18:22;8.10;99.90
64685;DHT22;51109;47.414;18.954;2023-11-21T08:20:48;8.10;99.90
64685;DHT22;51109;47.414;18.954;2023-11-21T08:23:15;8.00;99.90
64685;DHT22;51109;47.414;18.954;2023-11-21T08:25:45;8.00;99.90
64685;DHT22;51109;47.414;18.954;2023-11-21T08:28:11;8.00;99.90
64685;DHT22;51109;47.414;18.954;2023-11-21T08:30:37;8.00;99.90
64685;DHT22;51109;47.414;18.954;2023-11-21T08:33:03;8.00;99.90
64685;DHT22;51109;47.414;18.954;2023-11-21T08:35:30;8.00;99.90
64685;DHT22;51109;47.414;18.954;2023-11-21T08:37:56;8.00;99.90
64685;DHT22;51109;47.414;18.954;2023-11-21T08:40:22;7.90;99.90
64685;DHT22;51109;47.414;18.954;2023-11-21T08:42:49;7.90;99.90
64685;DHT22;51109;47.414;18.954;2023-11-21T08:45:17;8.00;99.90
64685;DHT22;51109;47.414;18.954;2023-11-21T08:47:43;8.00;99.90
64685;DHT22;51109;47.414;18.954;2023-11-21T08:50:10;8.00;99.90
64685;DHT22;51109;47.414;18.954;2023-11-21T08:52:40;8.00;99.90
64685;DHT22;51109;47.414;18.954;2023-11-21T08:55:07;8.00;99.90
64685;DHT22;51109;47.414;18.954;2023-11-21T08:57:35;8.00;99.90
64685;DHT22;51109;47.414;18.954;2023-11-21T09:00:02;7.90;99.90
64685;DHT22;51109;47.414;18.954;2023-11-21T09:02:28;7.90;99.90
64685;DHT22;51109;47.414;18.954;2023-11-21T09:04:54;7.90;99.90
64685;DHT22;51109;47.414;18.954;2023-11-21T09:07:20;7.80;99.90
64685;DHT22;51109;47.414;18.954;2023-11-21T09:09:49;7.80;99.90
64685;DHT22;51109;47.414;18.954;2023-11-21T09:12:15;7.80;99.90
64685;DHT22;51109;47.414;18.954;2023-11-21T09:14:42;7.80;99.90
64685;DHT22;51109;47.414;18.954;2023-11-21T09:17:10;7.90;99.90
64685;DHT22;51109;47.414;18.954;2023-11-21T09:19:38;7.90;99.90
64685;DHT22;51109;47.414;18.954;2023-11-21T09:22:04;7.80;99.90
64685;DHT22;51109;47.414;18.954;2023-11-21T09:24:33;7.90;99.90
64685;DHT22;51109;47.414;18.954;2023-11-21T09:27:00;7.90;99.90
64685;DHT22;51109;47.414;18.954;2023-11-21T09:29:28;7.90;99.90
64685;DHT22;51109;47.414;18.954;2023-11-21T09:31:55;7.90;99.90
64685;DHT22;51109;47.414;18.954;2023-11-21T09:34:21;8.00;99.90
64685;DHT22;51109;47.414;18.954;2023-11-21T09:36:48;8.00;99.90
64685;DHT22;51109;47.414;18.954;2023-11-21T09:39:14;8.10;99.90
64685;DHT22;51109;47.414;18.954;2023-11-21T09:41:50;8.10;99.90
64685;DHT22;51109;47.414;18.954;2023-11-21T09:44:26;8.10;99.90
64685;DHT22;51109;47.414;18.954;2023-11-21T09:46:59;8.10;99.90
64685;DHT22;51109;47.414;18.954;2023-11-21T09:49:26;8.10;99.90
64685;DHT22;51109;47.414;18.954;2023-11-21T09:51:55;8.20;99.90
64685;DHT22;51109;47.414;18.954;2023-11-21T09:54:24;8.10;99.90
64685;DHT22;51109;47.414;18.954;2023-11-21T09:56:50;8.10;99.90
64685;DHT22;51109;47.414;18.954;2023-11-21T09:59:16;8.20;99.90
64685;DHT22;51109;47.414;18.954;2023-11-21T10:01:43;8.20;99.90
64685;DHT22;51109;47.414;18.954;2023-11-21T10:04:09;8.30;99.90
64685;DHT22;51109;47.414;18.954;2023-11-21T10:06:39;8.30;99.90
64685;DHT22;51109;47.414;18.954;2023-11-21T10:09:10;8.30;99.90
64685;DHT22;51109;47.414;18.954;2023-11-21T10:11:41;8.40;99.90
64685;DHT22;51109;47.414;18.954;2023-11-21T10:14:10;8.30;99.90
64685;DHT22;51109;47.414;18.954;2023-11-21T10:16:38;8.40;99.90
64685;DHT22;51109;47.414;18.954;2023-11-21T10:19:05;8.40;99.90
64685;DHT22;51109;47.414;18.954;2023-11-21T10:21:34;8.50;99.90
64685;DHT22;51109;47.414;18.954;2023-11-21T10:24:00;8.50;99.90
64685;DHT22;51109;47.414;18.954;2023-11-21T10:26:28;8.50;99.90
64685;DHT22;51109;47.414;18.954;2023-11-21T10:29:01;8.50;99.90
64685;DHT22;51109;47.414;18.954;2023-11-21T10:31:30;8.50;99.90
64685;DHT22;51109;47.414;18.954;2023-11-21T10:34:15;8.50;99.90
64685;DHT22;51109;47.414;18.954;2023-11-21T10:36:41;8.60;99.90
64685;DHT22;51109;47.414;18.954;2023-11-21T10:39:08;8.50;99.90
64685;DHT22;51109;47.414;18.954;2023-11-21T10:41:35;8.60;99.90
64685;DHT22;51109;47.414;18.954;2023-11-21T10:44:02;8.60;99.90
64685;DHT22;51109;47.414;18.954;2023-11-21T10:46:33;8.60;99.90
64685;DHT22;51109;47.414;18.954;2023-11-21T10:49:00;8.70;99.90
64685;DHT22;51109;47.414;18.954;2023-11-21T10:51:26;8.70;99.90
64685;DHT22;51109;47.414;18.954;2023-11-21T10:53:52;8.80;99.90
64685;DHT22;51109;47.414;18.954;2023-11-21T10:56:19;8.80;99.90
64685;DHT22;51109;47.414;18.954;2023-11-21T10:58:49;8.80;99.90
64685;DHT22;51109;47.414;18.954;2023-11-21T11:01:17;8.90;99.90
64685;DHT22;51109;47.414;18.954;2023-11-21T11:03:44;8.90;99.90
64685;DHT22;51109;47.414;18.954;2023-11-21T11:06:10;8.80;99.90
64685;DHT22;51109;47.414;18.954;2023-11-21T11:08:38;8.80;99.90
64685;DHT22;51109;47.414;18.954;2023-11-21T11:11:09;8.80;99.90
64685;DHT22;51109;47.414;18.954;2023-11-21T11:13:37;8.70;99.90
64685;DHT22;51109;47.414;18.954;2023-11-21T11:16:04;8.70;99.90
64685;DHT22;51109;47.414;18.954;2023-11-21T11:18:33;8.60;99.90
64685;DHT22;51109;47.414;18.954;2023-11-21T11:21:23;8.60;99.90
64685;DHT22;51109;47.414;18.954;2023-11-21T11:24:01;8.50;99.90
64685;DHT22;51109;47.414;18.954;2023-11-21T11:35:23;8.50;99.90
64685;DHT22;51109;47.414;18.954;2023-11-21T11:37:51;8.50;99.90
64685;DHT22;51109;47.414;18.954;2023-11-21T11:40:18;8.60;99.90
64685;DHT22;51109;47.414;18.954;2023-11-21T11:42:58;8.60;99.90
64685;DHT22;51109;47.414;18.954;2023-11-21T11:45:35;8.60;99.90
64685;DHT22;51109;47.414;18.954;2023-11-21T11:48:02;8.60;99.90
64685;DHT22;51109;47.414;18.954;2023-11-21T11:50:29;8.60;99.90
64685;DHT22;51109;47.414;18.954;2023-11-21T11:53:14;8.60;99.90
64685;DHT22;51109;47.414;18.954;2023-11-21T11:55:41;8.60;99.90
64685;DHT22;51109;47.414;18.954;2023-11-21T11:58:07;8.70;99.90
64685;DHT22;51109;47.414;18.954;2023-11-21T12:00:34;8.70;99.90
64685;DHT22;51109;47.414;18.954;2023-11-21T12:03:04;8.70;99.90
64685;DHT22;51109;47.414;18.954;2023-11-21T12:05:35;8.70;99.90
64685;DHT22;51109;47.414;18.954;2023-11-21T12:08:10;8.80;99.90
64685;DHT22;51109;47.414;18.954;2023-11-21T12:10:38;8.70;99.90
64685;DHT22;51109;47.414;18.954;2023-11-21T12:13:11;8.80;99.90
64685;DHT22;51109;47.414;18.954;2023-11-21T12:15:40;8.80;99.90
64685;DHT22;51109;47.414;18.954;2023-11-21T12:18:07;8.80;99.90
64685;DHT22;51109;47.414;18.954;2023-11-21T12:20:33;8.80;99.90
64685;DHT22;51109;47.414;18.954;2023-11-21T12:23:05;8.80;99.90
64685;DHT22;51109;47.414;18.954;2023-11-21T12:25:31;8.80;99.90
64685;DHT22;51109;47.414;18.954;2023-11-21T12:27:59;8.90;99.90
64685;DHT22;51109;47.414;18.954;2023-11-21T12:30:29;9.00;99.90
64685;DHT22;51109;47.414;18.954;2023-11-21T12:32:57;9.00;99.90
64685;DHT22;51109;47.414;18.954;2023-11-21T12:35:31;9.10;99.90
64685;DHT22;51109;47.414;18.954;2023-11-21T12:38:01;9.10;99.90
64685;DHT22;51109;47.414;18.954;2023-11-21T12:40:28;9.10;99.90
64685;DHT22;51109;47.414;18.954;2023-11-21T12:42:56;9.10;99.90
64685;DHT22;51109;47.414;18.954;2023-11-21T12:45:24;9.10;99.90
64685;DHT22;51109;47.414;18.954;2023-11-21T12:48:02;9.20;99.90
64685;DHT22;51109;47.414;18.954;2023-11-21T12:50:33;9.30;99.90
64685;DHT22;51109;47.414;18.954;2023-11-21T12:53:10;9.30;99.90
64685;DHT22;51109;47.414;18.954;2023-11-21T12:55:43;9.20;99.90
64685;DHT22;51109;47.414;18.954;2023-11-21T12:58:15;9.20;99.90
64685;DHT22;51109;47.414;18.954;2023-11-21T13:00:48;9.10;99.90
64685;DHT22;51109;47.414;18.954;2023-11-21T13:03:16;9.10;99.90
64685;DHT22;51109;47.414;18.954;2023-11-21T13:05:47;9.20;99.90
64685;DHT22;51109;47.414;18.954;2023-11-21T13:08:17;9.20;99.90
64685;DHT22;51109;47.414;18.954;2023-11-21T13:10:49;9.30;99.90
64685;DHT22;51109;47.414;18.954;2023-11-21T13:13:15;9.30;99.90
64685;DHT22;51109;47.414;18.954;2023-11-21T13:15:51;9.30;99.90
64685;DHT22;51109;47.414;18.954;2023-11-21T13:18:18;9.30;99.90
64685;DHT22;51109;47.414;18.954;2023-11-21T13:20:44;9.30;99.90
64685;DHT22;51109;47.414;18.954;2023-11-21T13:23:11;9.20;99.90
64685;DHT22;51109;47.414;18.954;2023-11-21T13:25:42;9.20;99.90
64685;DHT22;51109;47.414;18.954;2023-11-21T13:28:11;9.20;99.90
64685;DHT22;51109;47.414;18.954;2023-11-21T13:30:48;9.20;99.90
64685;DHT22;51109;47.414;18.954;2023-11-21T13:33:14;9.30;99.90
64685;DHT22;51109;47.414;18.954;2023-11-21T13:35:53;9.30;99.90
64685;DHT22;51109;47.414;18.954;2023-11-21T13:38:19;9.20;99.90
64685;DHT22;51109;47.414;18.954;2023-11-21T13:40:49;9.20;99.90
64685;DHT22;51109;47.414;18.954;2023-11-21T13:43:16;9.20;99.90
64685;DHT22;51109;47.414;18.954;2023-11-21T13:45:45;9.20;99.90
64685;DHT22;51109;47.414;18.954;2023-11-21T13:48:12;9.20;99.90
64685;DHT22;51109;47.414;18.954;2023-11-21T13:50:48;9.10;99.90
64685;DHT22;51109;47.414;18.954;2023-11-21T13:53:21;9.20;99.90
64685;DHT22;51109;47.414;18.954;2023-11-21T13:55:51;9.20;99.90
64685;DHT22;51109;47.414;18.954;2023-11-21T13:58:20;9.20;99.90
64685;DHT22;51109;47.414;18.954;2023-11-21T14:01:05;9.20;99.90
64685;DHT22;51109;47.414;18.954;2023-11-21T14:03:32;9.20;99.90
64685;DHT22;51109;47.414;18.954;2023-11-21T14:06:05;9.20;99.90
64685;DHT22;51109;47.414;18.954;2023-11-21T14:08:40;9.10;99.90
64685;DHT22;51109;47.414;18.954;2023-11-21T14:11:07;9.10;99.90
64685;DHT22;51109;47.414;18.954;2023-11-21T14:13:33;9.10;99.90
64685;DHT22;51109;47.414;18.954;2023-11-21T14:15:59;9.10;99.90
64685;DHT22;51109;47.414;18.954;2023-11-21T14:18:27;9.00;99.90
64685;DHT22;51109;47.414;18.954;2023-11-21T14:20:59;9.10;99.90
64685;DHT22;51109;47.414;18.954;2023-11-21T14:23:25;9.00;99.90
64685;DHT22;51109;47.414;18.954;2023-11-21T14:25:51;9.00;99.90
64685;DHT22;51109;47.414;18.954;2023-11-21T14:28:18;9.10;99.90
64685;DHT22;51109;47.414;18.954;2023-11-21T14:30:48;9.10;99.90
64685;DHT22;51109;47.414;18.954;2023-11-21T14:33:14;9.10;99.90
64685;DHT22;51109;47.414;18.954;2023-11-21T14:35:42;9.00;99.90
64685;DHT22;51109;47.414;18.954;2023-11-21T14:38:09;9.00;99.90
64685;DHT22;51109;47.414;18.954;2023-11-21T14:40:36;8.90;99.90
64685;DHT22;51109;47.414;18.954;2023-11-21T14:43:03;8.80;99.90
64685;DHT22;51109;47.414;18.954;2023-11-21T14:45:32;8.80;99.90
64685;DHT22;51109;47.414;18.954;2023-11-21T14:48:02;8.80;99.90
64685;DHT22;51109;47.414;18.954;2023-11-21T14:50:42;8.80;99.90
64685;DHT22;51109;47.414;18.954;2023-11-21T14:53:09;8.80;99.90
64685;DHT22;51109;47.414;18.954;2023-11-21T14:55:35;8.80;99.90
64685;DHT22;51109;47.414;18.954;2023-11-21T14:58:21;8.80;99.90
64685;DHT22;51109;47.414;18.954;2023-11-21T15:00:53;8.70;99.90
64685;DHT22;51109;47.414;18.954;2023-11-21T15:03:24;8.70;99.90
64685;DHT22;51109;47.414;18.954;2023-11-21T15:05:57;8.60;99.90
64685;DHT22;51109;47.414;18.954;2023-11-21T15:08:24;8.60;99.90
64685;DHT22;51109;47.414;18.954;2023-11-21T15:10:58;8.60;99.90
64685;DHT22;51109;47.414;18.954;2023-11-21T15:13:24;8.50;99.90
64685;DHT22;51109;47.414;18.954;2023-11-21T15:15:53;8.40;99.90
64685;DHT22;51109;47.414;18.954;2023-11-21T15:18:22;8.40;99.90
64685;DHT22;51109;47.414;18.954;2023-11-21T15:20:48;8.30;99.90
64685;DHT22;51109;47.414;18.954;2023-11-21T15:23:14;8.20;99.90
64685;DHT22;51109;47.414;18.954;2023-11-21T15:25:42;8.20;99.90
64685;DHT22;51109;47.414;18.954;2023-11-21T15:28:08;8.10;99.90
64685;DHT22;51109;47.414;18.954;2023-11-21T15:30:34;8.00;99.90
64685;DHT22;51109;47.414;18.954;2023-11-21T15:33:00;8.00;99.90
64685;DHT22;51109;47.414;18.954;2023-11-21T15:35:28;8.00;99.90
64685;DHT22;51109;47.414;18.954;2023-11-21T15:37:54;8.00;99.90
64685;DHT22;51109;47.414;18.954;2023-11-21T15:40:23;8.00;99.90
64685;DHT22;51109;47.414;18.954;2023-11-21T15:42:49;7.90;99.90
64685;DHT22;51109;47.414;18.954;2023-11-21T15:45:15;7.90;99.90
64685;DHT22;51109;47.414;18.954;2023-11-21T15:47:44;7.80;99.90
64685;DHT22;51109;47.414;18.954;2023-11-21T15:50:10;7.70;99.90